Jolley, Iowa
Current Conditions -  °F | °C
As of 8:35 PM on Wednesday 22 Oct 2014 (Local Time) from KSLB Reporting Station
Moderate Rain Moderate Rain  
Wind Chill: 59°   Ceiling: 2900
Heat Index: 59°   Visibility: 2mi
Dew Point: 57°   Wind: 5mph
Humidity: 94%   Direction: 230°SW
Pressure: 30.09"   Gusts: NA
Location:  42.48°N, 94.72°W
Report Text: KSLB 230135Z AUTO 23004KT 2SM RA FEW002 SCT021 BKN029 15/14 A3009 RMK AO2
Loading
Personal Weather Stations






























Interactive Weather Map New forecast layout! Learn more

10-Day Weather Forecast

Advertisements
Track Severe Weather on mobile